РУС

ENG

 
  Pireps - S7
 

Рейс SBI5310

  • Выполнял: Dmitry Schcurov
  • Аэропорт отправления: Emeljanovo (UNKL)
  • Аэропорт назначения: Tolmachevo Novosibirsk (UNNT)
  • Тип ВС: E170 (VQ-BYK)
  • Время полёта: 03.06
  • Дата полёта: 13.08.2020
  • Маршрут: APRUS B926 KESED B151 EB
  • Статус: Одобрен

Детали полёта
Gross Revenue:
(69 load / $ 100.00 per unit
$ 6, 900.00
Fuel Cost:
(1930 fuel used @ 500 / unit)
$ 965, 000.00


Дополнительная информация о полёте:

Лог

Aircraft Used in flight is Embraer 170 Air Canada
13:46 Taxi Lights OFF at 950 AGL
13:52 Beacon Lights ON at 950 AGL
13:53 Engine 1 Started
13:54 Engine 2 Started
13:55Flaps 1 Selected at 950ft and 0kts
13:56 Taxi Lights ON at 950 AGL
13:56 Brakes are Released
13:59 Landing Lights ON at 950 AGL
13:59 Taxi Lights OFF at 950 AGL
13:59 Strobe Lights ON at 950 AGL
14:00 You Took off @ 155 Knots and Flaps at Position 1
Departure Weather
UNKL 131030Z VRB01MPS CAVOK 24/18 Q1002 R11/CLRD65 NOSIG RMK QFE726
14:01 Landing Gear Up @ 179 Knots and 1730 Feet
14:02Flaps Retracted at 5800ft and 153kts
14:03 You exceeded maximum bank angle
14:03 Landing Lights OFF at 7420 AGL
14:56 Landing Lights ON at 7610 AGL
15:04Flaps 1 Selected at 3560ft and 229kts
15:06Flaps 2 Selected at 2790ft and 190kts
15:07Flaps 3 Selected at 2200ft and 163kts
15:07Flaps 4 Selected at 2130ft and 155kts
15:07 Landing Gear Down @ 154 Knots and 2110 Feet
15:07Flaps 5 Selected at 1970ft and 152kts
15:07Flaps 6 Selected at 1820ft and 151kts
15:09 You Landed @ 130 Knots and with -100 Vertical Speed
Arrival Weather
UNNT 131030Z 25005G10MPS 8000 -TSRA BKN037CB 17/16 Q1000 R25/090070 R16/090070 TEMPO 27010G18MPS 2000 TSRAGR RMK QFE740/0987
15:10 Taxiing to gate
15:10Flaps Retracted at 380ft and 10kts
15:10 Landing Lights OFF at 380 AGL
15:10 Taxi Lights ON at 380 AGL
15:10 Strobe Lights OFF at 380 AGL
15:12 Taxi Lights OFF at 380 AGL
15:12 Brakes are On
15:12 Engine 1 Stoped
15:12 Engine 2 Stoped
15:12 Brakes are Released
15:12 Taxiing to gate
15:14 Brakes are On
15:15 Beacon Lights OFF at 380 AGL
Pirep logged with S7 Tracking 1.0.0.14



Общая оценка полета : 100%




Route Map



 
 
   
 
Новости

03.09.2020 - Полеты в MFS 2020

Спешим сообщить вам, что теперь наш S7 Pad поддерживается для полетов в новом симуляторе MFS 2020. В разделе Загрузки вы найдете FSUIPC7.rar
Инструкция для запуска прилагается!

   
 
Авторизация






Регистрация

Восстановить пароль?

Мы в соц. сетях

      



   
 





   
 


   
 


Яндекс.Метрика

www.va-s7.ru 2011-2020
Все права защищены.



Минуточку внимания!
Сайт va-s7.ru не является коммерческим проектом. Мы не имеем отношения к торговым маркам "S7" и "Globus" и их представителям.
Эмблемы на сайте являются собственностью соответствующих компаний.

аэронавигационная метеорологическая и любая другая информация с данного ресурса ни в коем случае не должна использоваться для реальных полетов